Time,TemperatureF,DewpointF,PressureIn,WindDirection,WindDirectionDegrees,WindSpeedMPH,WindSpeedGustMPH,Humidity,HourlyPrecipIn,Conditions,Clouds,dailyrainin,SoftwareType,DateUTC
2013-07-18 00:00:00,76.1,73.3,29.96,ESE,108,0.0,1.0,91,0.00,BKN,,0.00,WeatherDisplay:10.37,2013-07-18 04:00:00,
2013-07-18 00:05:00,76.1,73.3,29.97,ESE,108,0.0,0.0,91,0.00,BKN,,0.00,WeatherDisplay:10.37,2013-07-18 04:05:00,
2013-07-18 00:10:00,76.1,73.3,29.97,ESE,108,0.0,0.0,91,0.00,BKN,,0.00,WeatherDisplay:10.37,2013-07-18 04:10:00,
2013-07-18 00:20:00,76.0,72.9,29.97,ESE,108,0.0,0.0,90,0.00,BKN,,0.00,WeatherDisplay:10.37,2013-07-18 04:20:00,
2013-07-18 00:25:00,75.9,72.8,29.97,ESE,108,0.0,0.0,90,0.00,BKN,,0.00,WeatherDisplay:10.37,2013-07-18 04:25:00,
2013-07-18 00:30:00,75.9,73.1,29.97,ESE,108,0.0,0.0,91,0.00,BKN,,0.00,WeatherDisplay:10.37,2013-07-18 04:30:00,
2013-07-18 00:35:00,75.9,73.1,29.97,ESE,108,0.0,0.0,91,0.00,BKN,,0.00,WeatherDisplay:10.37,2013-07-18 04:35:00,
2013-07-18 00:40:00,75.9,73.1,29.97,ESE,108,0.0,0.0,91,0.00,BKN,,0.00,WeatherDisplay:10.37,2013-07-18 04:40:00,
2013-07-18 00:45:00,75.8,73.0,29.97,ESE,108,0.0,0.0,91,0.00,BKN,,0.00,WeatherDisplay:10.37,2013-07-18 04:45:00,
2013-07-18 00:50:00,75.8,73.0,29.97,ESE,108,0.0,0.0,91,0.00,BKN,,0.00,WeatherDisplay:10.37,2013-07-18 04:50:00,
2013-07-18 00:55:00,75.8,72.9,29.97,ESE,108,0.0,0.0,91,0.00,BKN,,0.00,WeatherDisplay:10.37,2013-07-18 04:55:00,
2013-07-18 01:00:00,75.7,72.9,29.97,ESE,108,0.0,0.0,91,0.00,BKN,,0.00,WeatherDisplay:10.37,2013-07-18 05:00:00,
2013-07-18 01:05:00,75.7,72.9,29.97,ESE,108,0.0,0.0,91,0.00,BKN,,0.00,WeatherDisplay:10.37,2013-07-18 05:05:00,
2013-07-18 01:10:00,75.6,72.8,29.96,ESE,108,0.0,0.0,91,0.00,BKN,,0.00,WeatherDisplay:10.37,2013-07-18 05:10:00,
2013-07-18 01:15:00,75.6,72.8,29.97,ESE,108,0.0,0.0,91,0.00,BKN,,0.00,WeatherDisplay:10.37,2013-07-18 05:15:00,
2013-07-18 01:20:00,75.5,72.7,29.97,ESE,108,0.0,1.0,91,0.00,BKN,,0.00,WeatherDisplay:10.37,2013-07-18 05:20:00,
2013-07-18 01:25:00,75.5,72.4,29.97,ESE,108,0.0,0.0,90,0.00,BKN,,0.00,WeatherDisplay:10.37,2013-07-18 05:25:00,
2013-07-18 01:30:00,75.5,72.4,29.97,ESE,108,0.0,0.0,90,0.00,BKN,,0.00,WeatherDisplay:10.37,2013-07-18 05:30:00,
2013-07-18 01:35:00,75.5,72.7,29.97,ESE,108,0.0,0.0,91,0.00,BKN,,0.00,WeatherDisplay:10.37,2013-07-18 05:35:00,
2013-07-18 01:40:00,75.3,72.5,29.97,ESE,108,0.0,0.0,91,0.00,BKN,,0.00,WeatherDisplay:10.37,2013-07-18 05:40:00,
2013-07-18 01:45:00,75.3,72.8,29.97,ESE,108,0.0,0.0,92,0.00,BKN,,0.00,WeatherDisplay:10.37,2013-07-18 05:45:00,
2013-07-18 01:50:00,75.1,72.3,29.97,ESE,108,0.0,0.0,91,0.00,BKN,,0.00,WeatherDisplay:10.37,2013-07-18 05:50:00,
2013-07-18 01:55:00,75.2,72.7,29.97,ESE,108,0.0,0.0,92,0.00,BKN,,0.00,WeatherDisplay:10.37,2013-07-18 05:55:00,
2013-07-18 02:00:00,75.2,72.7,29.97,ESE,108,0.0,0.0,92,0.00,BKN,,0.00,WeatherDisplay:10.37,2013-07-18 06:00:00,
2013-07-18 02:05:00,75.2,72.7,29.96,ESE,108,0.0,0.0,92,0.00,BKN,,0.00,WeatherDisplay:10.37,2013-07-18 06:05:00,
2013-07-18 02:10:00,75.1,72.6,29.96,ESE,108,0.0,0.0,92,0.00,BKN,,0.00,WeatherDisplay:10.37,2013-07-18 06:10:00,
2013-07-18 02:15:00,75.0,72.5,29.96,ESE,108,0.0,1.0,92,0.00,BKN,,0.00,WeatherDisplay:10.37,2013-07-18 06:15:00,
2013-07-18 02:20:00,75.0,72.5,29.95,ESE,108,0.0,0.0,92,0.00,BKN,,0.00,WeatherDisplay:10.37,2013-07-18 06:20:00,
2013-07-18 02:25:00,74.9,72.4,29.95,ESE,108,0.0,0.0,92,0.00,BKN,,0.00,WeatherDisplay:10.37,2013-07-18 06:25:00,
2013-07-18 02:30:00,74.7,72.2,29.95,ESE,108,0.0,0.0,92,0.00,BKN,,0.00,WeatherDisplay:10.37,2013-07-18 06:30:00,
2013-07-18 02:35:00,74.6,72.1,29.95,ESE,108,0.0,0.0,92,0.00,BKN,,0.00,WeatherDisplay:10.37,2013-07-18 06:35:00,
2013-07-18 02:40:00,74.5,72.0,29.94,ESE,108,0.0,0.0,92,0.00,BKN,,0.00,WeatherDisplay:10.37,2013-07-18 06:40:00,
2013-07-18 02:45:00,74.4,71.9,29.94,ESE,108,0.0,0.0,92,0.00,BKN,,0.00,WeatherDisplay:10.37,2013-07-18 06:45:00,
2013-07-18 02:50:00,74.3,71.8,29.94,ESE,108,0.0,0.0,92,0.00,BKN,,0.00,WeatherDisplay:10.37,2013-07-18 06:50:00,
2013-07-18 02:55:00,74.2,72.1,29.94,ESE,108,0.0,0.0,93,0.00,BKN,,0.00,WeatherDisplay:10.37,2013-07-18 06:55:00,
2013-07-18 03:00:00,74.2,72.0,29.94,ESE,108,0.0,0.0,93,0.00,BKN,,0.00,WeatherDisplay:10.37,2013-07-18 07:00:00,
2013-07-18 03:05:00,74.1,71.9,29.94,ESE,108,0.0,0.0,93,0.00,BKN,,0.00,WeatherDisplay:10.37,2013-07-18 07:05:00,
2013-07-18 03:10:00,73.9,71.7,29.94,ESE,108,0.0,0.0,93,0.00,BKN,,0.00,WeatherDisplay:10.37,2013-07-18 07:10:00,
2013-07-18 03:15:00,73.8,71.6,29.94,ESE,108,0.0,0.0,93,0.00,BKN,,0.00,WeatherDisplay:10.37,2013-07-18 07:15:00,
2013-07-18 03:20:00,73.7,71.5,29.93,ESE,108,0.0,0.0,93,0.00,BKN,,0.00,WeatherDisplay:10.37,2013-07-18 07:20:00,
2013-07-18 03:25:00,73.6,71.4,29.93,ESE,108,0.0,0.0,93,0.00,BKN,,0.00,WeatherDisplay:10.37,2013-07-18 07:25:00,
2013-07-18 03:30:00,73.5,71.4,29.93,ESE,108,0.0,0.0,93,0.00,BKN,,0.00,WeatherDisplay:10.37,2013-07-18 07:30:00,
2013-07-18 03:35:00,73.4,71.3,29.93,ESE,108,0.0,0.0,93,0.00,BKN,,0.00,WeatherDisplay:10.37,2013-07-18 07:35:00,
2013-07-18 03:40:00,73.3,71.2,29.93,ESE,108,0.0,0.0,93,0.00,BKN,,0.00,WeatherDisplay:10.37,2013-07-18 07:40:00,
2013-07-18 03:45:00,73.2,71.1,29.93,ESE,108,0.0,1.0,93,0.00,BKN,,0.00,WeatherDisplay:10.37,2013-07-18 07:45:00,
2013-07-18 03:50:00,73.1,71.0,29.93,ESE,108,0.0,0.0,93,0.00,BKN,,0.00,WeatherDisplay:10.37,2013-07-18 07:50:00,
2013-07-18 03:55:00,73.0,71.2,29.93,ESE,108,0.0,0.0,94,0.00,BKN,,0.00,WeatherDisplay:10.37,2013-07-18 07:55:00,
2013-07-18 04:00:00,73.0,71.2,29.93,ESE,108,0.0,0.0,94,0.00,BKN,,0.00,WeatherDisplay:10.37,2013-07-18 08:00:00,
2013-07-18 04:05:00,72.9,71.1,29.93,ESE,108,0.0,0.0,94,0.00,CLR,,0.00,WeatherDisplay:10.37,2013-07-18 08:05:00,
2013-07-18 04:10:00,72.9,71.1,29.93,ESE,108,0.0,0.0,94,0.00,CLR,,0.00,WeatherDisplay:10.37,2013-07-18 08:10:00,
2013-07-18 04:15:00,72.8,71.0,29.93,ESE,108,0.0,0.0,94,0.00,CLR,,0.00,WeatherDisplay:10.37,2013-07-18 08:15:00,
2013-07-18 04:20:00,72.8,71.0,29.94,ESE,108,0.0,0.0,94,0.00,CLR,,0.00,WeatherDisplay:10.37,2013-07-18 08:20:00,
2013-07-18 04:25:00,72.8,71.0,29.94,ESE,108,0.0,0.0,94,0.00,CLR,,0.00,WeatherDisplay:10.37,2013-07-18 08:25:00,
2013-07-18 04:30:00,72.7,70.9,29.94,ESE,108,0.0,0.0,94,0.00,CLR,,0.00,WeatherDisplay:10.37,2013-07-18 08:30:00,
2013-07-18 04:35:00,72.7,70.9,29.93,ESE,108,0.0,0.0,94,0.00,CLR,,0.00,WeatherDisplay:10.37,2013-07-18 08:35:00,
2013-07-18 04:40:00,72.6,70.8,29.94,ESE,108,0.0,0.0,94,0.00,CLR,,0.00,WeatherDisplay:10.37,2013-07-18 08:40:00,
2013-07-18 04:45:00,72.5,70.7,29.94,ESE,108,0.0,0.0,94,0.00,CLR,,0.00,WeatherDisplay:10.37,2013-07-18 08:45:00,
2013-07-18 04:50:00,72.5,70.7,29.94,ESE,108,0.0,0.0,94,0.00,CLR,,0.00,WeatherDisplay:10.37,2013-07-18 08:50:00,
2013-07-18 04:55:00,72.4,70.6,29.95,ESE,108,0.0,0.0,94,0.00,CLR,,0.00,WeatherDisplay:10.37,2013-07-18 08:55:00,
2013-07-18 05:00:00,72.4,70.6,29.95,ESE,108,0.0,0.0,94,0.00,CLR,,0.00,WeatherDisplay:10.37,2013-07-18 09:00:00,
2013-07-18 05:05:00,72.4,70.5,29.95,ESE,108,0.0,0.0,94,0.00,FEW,,0.00,WeatherDisplay:10.37,2013-07-18 09:05:00,
2013-07-18 05:10:00,72.2,70.4,29.95,ESE,108,0.0,0.0,94,0.00,FEW,,0.00,WeatherDisplay:10.37,2013-07-18 09:10:00,
2013-07-18 05:15:00,72.2,70.3,29.95,ESE,108,0.0,0.0,94,0.00,FEW,,0.00,WeatherDisplay:10.37,2013-07-18 09:15:00,
2013-07-18 05:20:00,72.1,70.3,29.95,ESE,108,0.0,0.0,94,0.00,FEW,,0.00,WeatherDisplay:10.37,2013-07-18 09:20:00,
2013-07-18 05:25:00,72.0,70.2,29.95,ESE,108,0.0,0.0,94,0.00,FEW,,0.00,WeatherDisplay:10.37,2013-07-18 09:25:00,
2013-07-18 05:30:00,71.9,70.1,29.95,ESE,108,0.0,0.0,94,0.00,FEW,,0.00,WeatherDisplay:10.37,2013-07-18 09:30:00,
2013-07-18 05:35:00,71.9,70.1,29.95,ESE,108,0.0,0.0,94,0.00,FEW,,0.00,WeatherDisplay:10.37,2013-07-18 09:35:00,
2013-07-18 05:40:00,71.8,70.0,29.95,ESE,108,0.0,0.0,94,0.00,FEW,,0.00,WeatherDisplay:10.37,2013-07-18 09:40:00,
2013-07-18 05:45:00,71.7,70.2,29.95,ESE,108,0.0,0.0,95,0.00,FEW,,0.00,WeatherDisplay:10.37,2013-07-18 09:45:00,
2013-07-18 05:55:00,71.7,70.2,29.96,ESE,108,0.0,0.0,95,0.00,FEW,,0.00,WeatherDisplay:10.37,2013-07-18 09:55:00,
2013-07-18 06:00:00,71.6,70.1,29.96,ESE,108,0.0,0.0,95,0.00,FEW,,0.00,WeatherDisplay:10.37,2013-07-18 10:00:00,
2013-07-18 06:05:00,71.6,70.1,29.96,ESE,108,0.0,0.0,95,0.00,FEW,,0.00,WeatherDisplay:10.37,2013-07-18 10:05:00,
2013-07-18 06:10:00,71.6,70.1,29.96,ESE,108,0.0,0.0,95,0.00,FEW,,0.00,WeatherDisplay:10.37,2013-07-18 10:10:00,
2013-07-18 06:15:00,71.6,70.1,29.96,ESE,108,0.0,0.0,95,0.00,FEW,,0.00,WeatherDisplay:10.37,2013-07-18 10:15:00,
2013-07-18 06:20:00,71.7,70.2,29.96,ESE,108,0.0,0.0,95,0.00,FEW,,0.00,WeatherDisplay:10.37,2013-07-18 10:20:00,
2013-07-18 06:25:00,71.7,70.2,29.96,ESE,108,0.0,0.0,95,0.00,FEW,,0.00,WeatherDisplay:10.37,2013-07-18 10:25:00,
2013-07-18 06:30:00,71.8,70.3,29.96,ESE,108,0.0,0.0,95,0.00,FEW,,0.00,WeatherDisplay:10.37,2013-07-18 10:30:00,
2013-07-18 06:35:00,71.8,70.3,29.97,ESE,108,0.0,0.0,95,0.00,FEW,,0.00,WeatherDisplay:10.37,2013-07-18 10:35:00,
2013-07-18 06:40:00,71.9,70.4,29.97,ESE,108,0.0,0.0,95,0.00,FEW,,0.00,WeatherDisplay:10.37,2013-07-18 10:40:00,
2013-07-18 06:45:00,72.0,70.4,29.97,ESE,108,0.0,0.0,95,0.00,FEW,,0.00,WeatherDisplay:10.37,2013-07-18 10:45:00,
2013-07-18 06:50:00,72.0,70.5,29.97,ESE,108,0.0,0.0,95,0.00,FEW,,0.00,WeatherDisplay:10.37,2013-07-18 10:50:00,
2013-07-18 06:55:00,72.1,70.6,29.97,ESE,108,0.0,0.0,95,0.00,FEW,,0.00,WeatherDisplay:10.37,2013-07-18 10:55:00,
2013-07-18 07:00:00,72.2,70.7,29.98,ESE,108,0.0,1.0,95,0.00,FEW,,0.00,WeatherDisplay:10.37,2013-07-18 11:00:00,
2013-07-18 07:05:00,72.3,70.8,29.98,ESE,108,0.0,1.0,95,0.00,CLR,,0.00,WeatherDisplay:10.37,2013-07-18 11:05:00,
2013-07-18 07:10:00,72.5,71.0,29.98,ESE,108,0.0,0.0,95,0.00,CLR,,0.00,WeatherDisplay:10.37,2013-07-18 11:10:00,
2013-07-18 07:15:00,72.7,71.2,29.98,ESE,107,0.0,1.0,95,0.00,CLR,,0.00,WeatherDisplay:10.37,2013-07-18 11:15:00,
2013-07-18 07:20:00,73.0,71.8,29.98,East,101,0.0,1.0,96,0.00,CLR,,0.00,WeatherDisplay:10.37,2013-07-18 11:20:00,
2013-07-18 07:25:00,73.3,71.7,29.98,East,96,0.0,0.0,95,0.00,CLR,,0.00,WeatherDisplay:10.37,2013-07-18 11:25:00,
2013-07-18 07:30:00,73.5,72.0,29.98,East,96,0.0,1.0,95,0.00,CLR,,0.00,WeatherDisplay:10.37,2013-07-18 11:30:00,
2013-07-18 07:40:00,74.2,72.7,29.98,East,92,0.0,0.0,95,0.00,CLR,,0.00,WeatherDisplay:10.37,2013-07-18 11:40:00,
2013-07-18 07:45:00,74.6,73.0,29.98,East,92,0.0,1.0,95,0.00,CLR,,0.00,WeatherDisplay:10.37,2013-07-18 11:45:00,
2013-07-18 07:55:00,75.3,73.5,29.98,East,101,0.0,2.0,94,0.00,CLR,,0.00,WeatherDisplay:10.37,2013-07-18 11:55:00,
2013-07-18 08:05:00,76.4,73.3,29.98,ENE,62,1.0,2.0,90,0.00,CLR,,0.00,WeatherDisplay:10.37,2013-07-18 12:05:00,
2013-07-18 08:10:00,77.0,73.9,29.98,West,279,0.0,1.0,90,0.00,CLR,,0.00,WeatherDisplay:10.37,2013-07-18 12:10:00,
2013-07-18 08:15:00,77.6,74.1,29.98,WSW,254,0.0,1.0,89,0.00,CLR,,0.00,WeatherDisplay:10.37,2013-07-18 12:15:00,
2013-07-18 08:20:00,78.0,74.2,29.98,WSW,254,0.0,1.0,88,0.00,CLR,,0.00,WeatherDisplay:10.37,2013-07-18 12:20:00,
2013-07-18 08:25:00,78.5,74.6,29.98,WSW,251,0.0,1.0,88,0.00,CLR,,0.00,WeatherDisplay:10.37,2013-07-18 12:25:00,
2013-07-18 08:30:00,78.9,74.7,29.98,WSW,241,0.0,1.0,87,0.00,CLR,,0.00,WeatherDisplay:10.37,2013-07-18 12:30:00,
2013-07-18 08:35:00,79.4,74.9,29.98,West,270,0.0,2.0,86,0.00,CLR,,0.00,WeatherDisplay:10.37,2013-07-18 12:35:00,
2013-07-18 08:40:00,79.8,74.9,29.98,SW,223,1.0,3.0,85,0.00,CLR,,0.00,WeatherDisplay:10.37,2013-07-18 12:40:00,
2013-07-18 08:45:00,80.2,74.9,29.98,SW,226,0.0,3.0,84,0.00,CLR,,0.00,WeatherDisplay:10.37,2013-07-18 12:45:00,
2013-07-18 08:50:00,80.6,75.0,29.98,West,263,1.0,3.0,83,0.00,CLR,,0.00,WeatherDisplay:10.37,2013-07-18 12:50:00,
2013-07-18 08:55:00,80.9,74.5,29.99,NW,304,1.0,3.0,81,0.00,CLR,,0.00,WeatherDisplay:10.37,2013-07-18 12:55:00,
2013-07-18 09:00:00,81.3,74.9,29.98,NNW,327,1.0,4.0,81,0.00,CLR,,0.00,WeatherDisplay:10.37,2013-07-18 13:00:00,
2013-07-18 09:05:00,81.7,74.5,29.98,WNW,289,1.0,4.0,79,0.00,FEW,,0.00,WeatherDisplay:10.37,2013-07-18 13:05:00,
2013-07-18 09:10:00,81.9,74.4,29.98,WNW,294,1.0,3.0,78,0.00,FEW,,0.00,WeatherDisplay:10.37,2013-07-18 13:10:00,
2013-07-18 09:20:00,82.5,73.8,29.98,North,357,1.0,4.0,75,0.00,FEW,,0.00,WeatherDisplay:10.37,2013-07-18 13:20:00,
2013-07-18 09:25:00,82.9,73.3,29.98,NNE,13,2.0,7.0,73,0.00,FEW,,0.00,WeatherDisplay:10.37,2013-07-18 13:25:00,
2013-07-18 09:30:00,83.1,73.5,29.98,NNE,29,1.0,6.0,73,0.00,FEW,,0.00,WeatherDisplay:10.37,2013-07-18 13:30:00,
2013-07-18 09:35:00,83.3,73.3,29.98,NNE,32,1.0,3.0,72,0.00,FEW,,0.00,WeatherDisplay:10.37,2013-07-18 13:35:00,
2013-07-18 09:40:00,83.5,73.1,29.98,North,11,1.0,4.0,71,0.00,FEW,,0.00,WeatherDisplay:10.37,2013-07-18 13:40:00,
2013-07-18 09:45:00,83.6,73.6,29.98,NE,42,1.0,2.0,72,0.00,FEW,,0.00,WeatherDisplay:10.37,2013-07-18 13:45:00,
2013-07-18 09:50:00,83.7,73.7,29.98,WNW,285,1.0,3.0,72,0.00,FEW,,0.00,WeatherDisplay:10.37,2013-07-18 13:50:00,
2013-07-18 09:55:00,83.9,73.1,29.98,NW,318,1.0,4.0,70,0.00,FEW,,0.00,WeatherDisplay:10.37,2013-07-18 13:55:00,
2013-07-18 10:00:00,84.1,72.4,29.99,NW,308,1.0,3.0,68,0.00,FEW,,0.00,WeatherDisplay:10.37,2013-07-18 14:00:00,
2013-07-18 10:05:00,84.1,72.8,29.99,WNW,290,0.0,3.0,69,0.00,FEW,,0.00,WeatherDisplay:10.37,2013-07-18 14:05:00,
2013-07-18 10:10:00,84.1,73.3,29.99,NW,317,1.0,3.0,70,0.00,FEW,,0.00,WeatherDisplay:10.37,2013-07-18 14:10:00,
2013-07-18 10:15:00,84.1,73.3,29.99,SW,224,1.0,2.0,70,0.00,FEW,,0.00,WeatherDisplay:10.37,2013-07-18 14:15:00,
2013-07-18 10:20:00,84.3,72.6,29.99,SSW,211,1.0,2.0,68,0.00,FEW,,0.00,WeatherDisplay:10.37,2013-07-18 14:20:00,
2013-07-18 10:25:00,84.5,73.2,29.99,North,6,0.0,3.0,69,0.00,FEW,,0.00,WeatherDisplay:10.37,2013-07-18 14:25:00,
2013-07-18 10:30:00,84.5,72.3,29.99,WNW,286,2.0,6.0,67,0.00,FEW,,0.00,WeatherDisplay:10.37,2013-07-18 14:30:00,
2013-07-18 10:35:00,84.3,72.6,29.99,West,269,2.0,4.0,68,0.00,FEW,,0.00,WeatherDisplay:10.37,2013-07-18 14:35:00,
2013-07-18 10:40:00,84.0,71.4,29.99,West,266,1.0,4.0,66,0.00,FEW,,0.00,WeatherDisplay:10.37,2013-07-18 14:40:00,
2013-07-18 10:45:00,84.2,73.3,29.99,WNW,301,1.0,4.0,70,0.00,FEW,,0.00,WeatherDisplay:10.37,2013-07-18 14:45:00,
2013-07-18 10:50:00,84.5,72.8,29.98,NNW,328,1.0,3.0,68,0.00,FEW,,0.00,WeatherDisplay:10.37,2013-07-18 14:50:00,
2013-07-18 10:55:00,84.8,71.3,29.99,NNW,336,1.0,3.0,64,0.00,FEW,,0.00,WeatherDisplay:10.37,2013-07-18 14:55:00,
2013-07-18 11:00:00,85.0,71.5,29.99,North,2,1.0,5.0,64,0.00,FEW,,0.00,WeatherDisplay:10.37,2013-07-18 15:00:00,
2013-07-18 11:05:00,85.2,70.7,29.99,North,350,1.0,4.0,62,0.00,FEW,,0.00,WeatherDisplay:10.37,2013-07-18 15:05:00,
2013-07-18 11:10:00,85.4,71.4,29.98,NNW,343,1.0,2.0,63,0.00,FEW,,0.00,WeatherDisplay:10.37,2013-07-18 15:10:00,
2013-07-18 11:15:00,85.5,71.5,29.98,West,281,1.0,4.0,63,0.00,FEW,,0.00,WeatherDisplay:10.37,2013-07-18 15:15:00,
2013-07-18 11:20:00,85.6,69.6,29.98,NW,322,1.0,3.0,59,0.00,FEW,,0.00,WeatherDisplay:10.37,2013-07-18 15:20:00,
2013-07-18 11:25:00,85.7,71.2,29.98,WNW,297,1.0,3.0,62,0.00,FEW,,0.00,WeatherDisplay:10.37,2013-07-18 15:25:00,
2013-07-18 11:30:00,85.8,70.3,29.98,NNW,337,1.0,3.0,60,0.00,FEW,,0.00,WeatherDisplay:10.37,2013-07-18 15:30:00,
2013-07-18 11:35:00,86.0,71.9,29.98,NW,311,1.0,3.0,63,0.00,FEW,,0.00,WeatherDisplay:10.37,2013-07-18 15:35:00,
2013-07-18 11:40:00,86.1,70.6,29.98,WNW,287,0.0,2.0,60,0.00,FEW,,0.00,WeatherDisplay:10.37,2013-07-18 15:40:00,
2013-07-18 11:50:00,86.5,71.5,29.98,NE,38,1.0,3.0,61,0.00,FEW,,0.00,WeatherDisplay:10.37,2013-07-18 15:50:00,
2013-07-18 11:55:00,86.8,70.8,29.99,NE,46,1.0,3.0,59,0.00,FEW,,0.00,WeatherDisplay:10.37,2013-07-18 15:55:00,
2013-07-18 12:00:00,87.0,70.4,29.98,NNE,25,1.0,5.0,58,0.00,FEW,,0.00,WeatherDisplay:10.37,2013-07-18 16:00:00,
2013-07-18 12:05:00,87.1,70.0,29.98,North,354,0.0,2.0,57,0.00,FEW,,0.00,WeatherDisplay:10.37,2013-07-18 16:05:00,
2013-07-18 12:10:00,87.2,70.1,29.98,ENE,65,0.0,3.0,57,0.00,FEW,,0.00,WeatherDisplay:10.37,2013-07-18 16:10:00,
2013-07-18 12:15:00,87.2,69.6,29.98,East,82,1.0,3.0,56,0.00,FEW,,0.00,WeatherDisplay:10.37,2013-07-18 16:15:00,
2013-07-18 12:20:00,87.2,72.1,29.98,ENE,75,0.0,2.0,61,0.00,FEW,,0.00,WeatherDisplay:10.37,2013-07-18 16:20:00,
2013-07-18 12:25:00,87.2,71.6,29.98,ENE,63,1.0,2.0,60,0.00,FEW,,0.00,WeatherDisplay:10.37,2013-07-18 16:25:00,
2013-07-18 12:30:00,87.4,71.3,29.98,ENE,63,1.0,4.0,59,0.00,FEW,,0.00,WeatherDisplay:10.37,2013-07-18 16:30:00,
2013-07-18 12:35:00,87.5,71.4,29.97,ESE,109,0.0,2.0,59,0.00,FEW,,0.00,WeatherDisplay:10.37,2013-07-18 16:35:00,
2013-07-18 12:40:00,87.7,71.6,29.97,West,260,1.0,3.0,59,0.00,FEW,,0.00,WeatherDisplay:10.37,2013-07-18 16:40:00,
2013-07-18 12:45:00,87.9,72.3,29.97,ENE,60,0.0,3.0,60,0.00,FEW,,0.00,WeatherDisplay:10.37,2013-07-18 16:45:00,
2013-07-18 12:50:00,88.0,69.3,29.97,NE,52,0.0,2.0,54,0.00,FEW,,0.00,WeatherDisplay:10.37,2013-07-18 16:50:00,
2013-07-18 12:55:00,88.0,72.4,29.97,West,264,0.0,1.0,60,0.00,FEW,,0.00,WeatherDisplay:10.37,2013-07-18 16:55:00,
2013-07-18 13:00:00,87.9,71.3,29.97,NNE,14,1.0,4.0,58,0.00,FEW,,0.00,WeatherDisplay:10.37,2013-07-18 17:00:00,
2013-07-18 13:05:00,88.0,70.3,29.97,ENE,57,1.0,3.0,56,0.00,FEW,,0.00,WeatherDisplay:10.37,2013-07-18 17:05:00,
2013-07-18 13:15:00,88.3,70.1,29.96,NNE,25,0.0,5.0,55,0.00,FEW,,0.00,WeatherDisplay:10.37,2013-07-18 17:15:00,
2013-07-18 13:20:00,88.4,72.2,29.96,ENE,78,1.0,2.0,59,0.00,FEW,,0.00,WeatherDisplay:10.37,2013-07-18 17:20:00,
2013-07-18 13:25:00,88.4,71.2,29.96,ESE,104,0.0,2.0,57,0.00,FEW,,0.00,WeatherDisplay:10.37,2013-07-18 17:25:00,
2013-07-18 13:30:00,88.6,72.9,29.96,East,101,0.0,1.0,60,0.00,FEW,,0.00,WeatherDisplay:10.37,2013-07-18 17:30:00,
2013-07-18 13:35:00,88.8,72.6,29.96,East,101,0.0,1.0,59,0.00,FEW,,0.00,WeatherDisplay:10.37,2013-07-18 17:35:00,
2013-07-18 13:40:00,89.1,73.4,29.96,ENE,60,1.0,3.0,60,0.00,FEW,,0.00,WeatherDisplay:10.37,2013-07-18 17:40:00,
2013-07-18 13:45:00,89.4,72.1,29.96,East,79,0.0,3.0,57,0.00,FEW,,0.00,WeatherDisplay:10.37,2013-07-18 17:45:00,
2013-07-18 13:55:00,90.0,72.7,29.96,East,101,1.0,2.0,57,0.00,FEW,,0.00,WeatherDisplay:10.37,2013-07-18 17:55:00,
2013-07-18 14:00:00,90.4,72.6,29.96,East,89,1.0,2.0,56,0.00,FEW,,0.00,WeatherDisplay:10.37,2013-07-18 18:00:00,
2013-07-18 14:05:00,90.8,72.4,29.96,ENE,66,1.0,3.0,55,0.00,SCT,,0.00,WeatherDisplay:10.37,2013-07-18 18:05:00,
2013-07-18 14:10:00,91.0,73.6,29.96,ENE,62,1.0,3.0,57,0.00,SCT,,0.00,WeatherDisplay:10.37,2013-07-18 18:10:00,
2013-07-18 14:15:00,91.1,73.2,29.95,SSW,200,0.0,3.0,56,0.00,SCT,,0.00,WeatherDisplay:10.37,2013-07-18 18:15:00,
2013-07-18 14:20:00,91.2,73.3,29.95,South,179,0.0,2.0,56,0.00,SCT,,0.00,WeatherDisplay:10.37,2013-07-18 18:20:00,
2013-07-18 14:25:00,91.3,74.4,29.95,SSE,152,1.0,3.0,58,0.00,SCT,,0.00,WeatherDisplay:10.37,2013-07-18 18:25:00,
2013-07-18 14:30:00,91.5,72.5,29.95,SW,224,1.0,3.0,54,0.00,SCT,,0.00,WeatherDisplay:10.37,2013-07-18 18:30:00,
2013-07-18 14:35:00,91.5,73.6,29.94,SW,214,0.0,4.0,56,0.00,SCT,,0.00,WeatherDisplay:10.37,2013-07-18 18:35:00,
2013-07-18 14:40:00,91.3,75.0,29.94,SSW,199,0.0,1.0,59,0.00,SCT,,0.00,WeatherDisplay:10.37,2013-07-18 18:40:00,
2013-07-18 14:45:00,91.3,74.4,29.94,SSE,156,0.0,2.0,58,0.00,SCT,,0.00,WeatherDisplay:10.37,2013-07-18 18:45:00,
2013-07-18 14:50:00,91.3,73.9,29.94,SE,130,0.0,1.0,57,0.00,SCT,,0.00,WeatherDisplay:10.37,2013-07-18 18:50:00,
2013-07-18 14:55:00,91.6,74.7,29.94,SE,144,0.0,4.0,58,0.00,SCT,,0.00,WeatherDisplay:10.37,2013-07-18 18:55:00,
2013-07-18 15:00:00,91.6,74.2,29.94,SSW,211,0.0,6.0,57,0.00,SCT,,0.00,WeatherDisplay:10.37,2013-07-18 19:00:00,
2013-07-18 15:05:00,91.1,74.3,29.94,SW,230,0.0,2.0,58,0.00,SCT,,0.00,WeatherDisplay:10.37,2013-07-18 19:05:00,
2013-07-18 15:10:00,90.9,75.1,29.93,WSW,245,0.0,1.0,60,0.00,SCT,,0.00,WeatherDisplay:10.37,2013-07-18 19:10:00,
2013-07-18 15:15:00,90.9,76.1,29.93,SSW,205,1.0,2.0,62,0.00,SCT,,0.00,WeatherDisplay:10.37,2013-07-18 19:15:00,
2013-07-18 15:20:00,91.1,75.3,29.93,South,184,1.0,5.0,60,0.00,SCT,,0.00,WeatherDisplay:10.37,2013-07-18 19:20:00,
2013-07-18 15:25:00,91.0,74.7,29.92,SSW,196,0.0,3.0,59,0.00,SCT,,0.00,WeatherDisplay:10.37,2013-07-18 19:25:00,
2013-07-18 15:30:00,91.2,75.9,29.92,South,191,0.0,0.0,61,0.00,SCT,,0.00,WeatherDisplay:10.37,2013-07-18 19:30:00,
2013-07-18 15:35:00,91.4,77.5,29.92,South,190,0.0,1.0,64,0.00,SCT,,0.00,WeatherDisplay:10.37,2013-07-18 19:35:00,
2013-07-18 15:40:00,90.9,76.1,29.92,SSW,200,2.0,9.0,62,0.00,SCT,,0.00,WeatherDisplay:10.37,2013-07-18 19:40:00,
2013-07-18 15:45:00,90.1,75.8,29.92,SSW,192,2.0,5.0,63,0.00,SCT,,0.00,WeatherDisplay:10.37,2013-07-18 19:45:00,
2013-07-18 15:50:00,89.8,76.0,29.92,SE,131,0.0,6.0,64,0.00,SCT,,0.00,WeatherDisplay:10.37,2013-07-18 19:50:00,
2013-07-18 15:55:00,89.8,76.4,29.92,East,82,1.0,4.0,65,0.00,SCT,,0.00,WeatherDisplay:10.37,2013-07-18 19:55:00,
2013-07-18 16:00:00,89.4,76.5,29.92,SSE,152,0.0,9.0,66,0.00,SCT,,0.00,WeatherDisplay:10.37,2013-07-18 20:00:00,
2013-07-18 16:05:00,88.8,76.0,29.92,SSW,207,0.0,2.0,66,0.00,SCT,,0.00,WeatherDisplay:10.37,2013-07-18 20:05:00,
2013-07-18 16:10:00,88.4,76.0,29.92,NE,42,1.0,7.0,67,0.00,SCT,,0.00,WeatherDisplay:10.37,2013-07-18 20:10:00,
2013-07-18 16:15:00,87.8,75.9,29.92,NNE,33,1.0,5.0,68,0.00,SCT,,0.00,WeatherDisplay:10.37,2013-07-18 20:15:00,
2013-07-18 16:20:00,87.2,76.7,29.93,NE,50,0.0,1.0,71,0.00,SCT,,0.00,WeatherDisplay:10.37,2013-07-18 20:20:00,
2013-07-18 16:25:00,86.5,77.3,29.93,ESE,111,0.0,2.0,74,0.00,SCT,,0.00,WeatherDisplay:10.37,2013-07-18 20:25:00,
2013-07-18 16:30:00,85.9,75.4,29.93,SSE,150,1.0,3.0,71,0.00,SCT,,0.00,WeatherDisplay:10.37,2013-07-18 20:30:00,
2013-07-18 16:35:00,85.7,76.4,29.93,SSE,147,0.0,2.0,74,0.00,SCT,,0.00,WeatherDisplay:10.37,2013-07-18 20:35:00,
2013-07-18 16:40:00,85.4,74.5,29.93,East,86,0.0,2.0,70,0.00,SCT,,0.00,WeatherDisplay:10.37,2013-07-18 20:40:00,
2013-07-18 16:45:00,85.4,74.9,29.93,NNE,26,0.0,2.0,71,0.00,SCT,,0.00,WeatherDisplay:10.37,2013-07-18 20:45:00,
2013-07-18 16:50:00,85.4,74.5,29.94,ENE,68,0.0,2.0,70,0.00,SCT,,0.00,WeatherDisplay:10.37,2013-07-18 20:50:00,
2013-07-18 16:55:00,85.5,75.0,29.94,ESE,115,1.0,2.0,71,0.00,SCT,,0.00,WeatherDisplay:10.37,2013-07-18 20:55:00,
2013-07-18 17:00:00,85.6,75.1,29.94,East,81,1.0,3.0,71,0.00,SCT,,0.00,WeatherDisplay:10.37,2013-07-18 21:00:00,
2013-07-18 17:05:00,85.6,75.9,29.94,ENE,66,3.0,9.0,73,0.00,SCT,,0.00,WeatherDisplay:10.37,2013-07-18 21:05:00,
2013-07-18 17:10:00,84.8,75.6,29.94,ENE,66,1.0,8.0,74,0.00,SCT,,0.00,WeatherDisplay:10.37,2013-07-18 21:10:00,
2013-07-18 17:15:00,84.2,74.6,29.93,ENE,70,1.0,5.0,73,0.00,SCT,,0.00,WeatherDisplay:10.37,2013-07-18 21:15:00,
2013-07-18 17:20:00,83.5,75.2,29.93,NE,48,1.0,3.0,76,0.00,BKN,,0.00,WeatherDisplay:10.37,2013-07-18 21:20:00,
2013-07-18 17:25:00,82.9,75.3,29.92,NNW,330,0.0,0.0,78,0.00,BKN,,0.00,WeatherDisplay:10.37,2013-07-18 21:25:00,
2013-07-18 17:30:00,82.6,75.0,29.92,North,3,0.0,2.0,78,0.00,BKN,,0.00,WeatherDisplay:10.37,2013-07-18 21:30:00,
2013-07-18 17:35:00,82.2,75.4,29.92,East,84,0.0,2.0,80,0.00,BKN,,0.00,WeatherDisplay:10.37,2013-07-18 21:35:00,
2013-07-18 17:40:00,81.9,75.1,29.92,ESE,102,0.0,2.0,80,0.00,BKN,,0.00,WeatherDisplay:10.37,2013-07-18 21:40:00,
2013-07-18 17:45:00,81.8,74.6,29.92,East,84,0.0,1.0,79,0.00,BKN,,0.00,WeatherDisplay:10.37,2013-07-18 21:45:00,
2013-07-18 17:50:00,81.7,74.5,29.92,ENE,75,0.0,2.0,79,0.00,BKN,,0.00,WeatherDisplay:10.37,2013-07-18 21:50:00,
2013-07-18 17:55:00,81.6,74.1,29.92,ENE,73,0.0,3.0,78,0.00,BKN,,0.00,WeatherDisplay:10.37,2013-07-18 21:55:00,
2013-07-18 18:05:00,81.1,74.0,29.92,ESE,111,0.0,1.0,79,0.00,SCT,,0.00,WeatherDisplay:10.37,2013-07-18 22:05:00,
2013-07-18 18:10:00,80.8,73.3,29.92,SE,146,0.0,2.0,78,0.00,SCT,,0.00,WeatherDisplay:10.37,2013-07-18 22:10:00,
2013-07-18 18:15:00,80.6,72.3,29.92,SE,143,0.0,1.0,76,0.00,SCT,,0.00,WeatherDisplay:10.37,2013-07-18 22:15:00,
2013-07-18 18:20:00,80.4,72.9,29.92,SE,140,0.0,0.0,78,0.00,SCT,,0.00,WeatherDisplay:10.37,2013-07-18 22:20:00,
2013-07-18 18:25:00,80.2,73.9,29.92,SE,140,0.0,1.0,81,0.00,SCT,,0.00,WeatherDisplay:10.37,2013-07-18 22:25:00,
2013-07-18 18:30:00,80.0,72.9,29.92,SSE,159,0.0,2.0,79,0.00,SCT,,0.00,WeatherDisplay:10.37,2013-07-18 22:30:00,
2013-07-18 18:35:00,79.7,71.9,29.92,South,183,0.0,1.0,77,0.00,SCT,,0.00,WeatherDisplay:10.37,2013-07-18 22:35:00,
2013-07-18 18:40:00,79.7,72.6,29.93,South,182,0.0,1.0,79,0.00,SCT,,0.00,WeatherDisplay:10.37,2013-07-18 22:40:00,
2013-07-18 18:45:00,79.7,72.2,29.93,South,182,0.0,0.0,78,0.00,SCT,,0.00,WeatherDisplay:10.37,2013-07-18 22:45:00,
2013-07-18 18:50:00,79.6,73.6,29.93,SSE,153,0.0,2.0,82,0.00,SCT,,0.00,WeatherDisplay:10.37,2013-07-18 22:50:00,
2013-07-18 18:55:00,79.3,72.6,29.93,NNE,17,0.0,0.0,80,0.00,SCT,,0.00,WeatherDisplay:10.37,2013-07-18 22:55:00,
2013-07-18 19:00:00,79.1,72.8,29.95,NNE,17,0.0,2.0,81,0.00,SCT,,0.00,WeatherDisplay:10.37,2013-07-18 23:00:00,
2013-07-18 19:05:00,79.0,71.9,29.94,NNE,32,0.0,1.0,79,0.00,BKN,,0.00,WeatherDisplay:10.37,2013-07-18 23:05:00,
2013-07-18 19:10:00,78.9,72.5,29.94,NE,55,0.0,0.0,81,0.00,BKN,,0.00,WeatherDisplay:10.37,2013-07-18 23:10:00,
2013-07-18 19:15:00,78.6,72.6,29.94,NE,55,0.0,0.0,82,0.00,BKN,,0.00,WeatherDisplay:10.37,2013-07-18 23:15:00,
2013-07-18 19:20:00,78.2,71.5,29.94,NE,55,0.0,0.0,80,0.00,BKN,,0.00,WeatherDisplay:10.37,2013-07-18 23:20:00,
2013-07-18 19:25:00,78.0,71.0,29.94,NE,55,0.0,0.0,79,0.00,BKN,,0.00,WeatherDisplay:10.37,2013-07-18 23:25:00,
2013-07-18 19:30:00,77.9,71.6,29.95,NE,55,0.0,0.0,81,0.00,BKN,,0.00,WeatherDisplay:10.37,2013-07-18 23:30:00,
2013-07-18 19:35:00,77.8,71.9,29.94,NE,55,0.0,0.0,82,0.00,BKN,,0.00,WeatherDisplay:10.37,2013-07-18 23:35:00,
2013-07-18 19:40:00,77.7,71.7,29.94,NE,55,0.0,0.0,82,0.00,BKN,,0.00,WeatherDisplay:10.37,2013-07-18 23:40:00,
2013-07-18 19:45:00,77.5,71.6,29.96,North,2,2.0,4.0,82,0.00,BKN,,0.00,WeatherDisplay:10.37,2013-07-18 23:45:00,
2013-07-18 19:50:00,77.5,71.6,29.96,NNW,343,1.0,5.0,82,0.00,BKN,,0.00,WeatherDisplay:10.37,2013-07-18 23:50:00,
2013-07-18 19:55:00,77.4,71.8,29.95,NNE,21,0.0,2.0,83,0.00,BKN,,0.00,WeatherDisplay:10.37,2013-07-18 23:55:00,
2013-07-18 20:00:00,77.2,71.7,29.95,ENE,78,0.0,2.0,83,0.00,BKN,,0.00,WeatherDisplay:10.37,2013-07-19 00:00:00,
2013-07-18 20:05:00,77.2,71.6,29.95,NNW,348,0.0,0.0,83,0.00,SCT,,0.00,WeatherDisplay:10.37,2013-07-19 00:05:00,
2013-07-18 20:10:00,77.1,71.9,29.94,ENE,63,0.0,2.0,84,0.00,SCT,,0.00,WeatherDisplay:10.37,2013-07-19 00:10:00,
2013-07-18 20:15:00,77.0,71.8,29.94,ESE,107,0.0,1.0,84,0.00,SCT,,0.00,WeatherDisplay:10.37,2013-07-19 00:15:00,
2013-07-18 20:20:00,76.8,71.9,29.94,ESE,107,0.0,1.0,85,0.00,SCT,,0.00,WeatherDisplay:10.37,2013-07-19 00:20:00,
2013-07-18 20:25:00,76.6,71.7,29.94,ESE,107,0.0,0.0,85,0.00,SCT,,0.00,WeatherDisplay:10.37,2013-07-19 00:25:00,
2013-07-18 20:30:00,76.5,72.0,29.94,ESE,107,0.0,0.0,86,0.00,SCT,,0.00,WeatherDisplay:10.37,2013-07-19 00:30:00,
2013-07-18 20:35:00,76.1,71.6,29.94,ESE,107,0.0,0.0,86,0.00,SCT,,0.00,WeatherDisplay:10.37,2013-07-19 00:35:00,
2013-07-18 20:40:00,75.8,71.3,29.94,ESE,107,0.0,0.0,86,0.00,SCT,,0.00,WeatherDisplay:10.37,2013-07-19 00:40:00,
2013-07-18 20:45:00,75.6,71.5,29.94,ESE,107,0.0,0.0,87,0.00,SCT,,0.00,WeatherDisplay:10.37,2013-07-19 00:45:00,
2013-07-18 20:50:00,75.5,71.4,29.94,ESE,107,0.0,0.0,87,0.00,SCT,,0.00,WeatherDisplay:10.37,2013-07-19 00:50:00,
2013-07-18 20:55:00,75.3,71.2,29.94,ESE,107,0.0,0.0,87,0.00,SCT,,0.00,WeatherDisplay:10.37,2013-07-19 00:55:00,
2013-07-18 21:00:00,75.2,71.4,29.94,ESE,107,0.0,0.0,88,0.00,SCT,,0.00,WeatherDisplay:10.37,2013-07-19 01:00:00,
2013-07-18 21:05:00,75.0,71.5,29.94,ESE,107,0.0,0.0,89,0.00,SCT,,0.00,WeatherDisplay:10.37,2013-07-19 01:05:00,
2013-07-18 21:10:00,74.8,71.0,29.94,ESE,107,0.0,0.0,88,0.00,SCT,,0.00,WeatherDisplay:10.37,2013-07-19 01:10:00,
2013-07-18 21:15:00,74.7,70.9,29.94,ESE,107,0.0,0.0,88,0.00,SCT,,0.00,WeatherDisplay:10.37,2013-07-19 01:15:00,
2013-07-18 21:25:00,74.4,70.6,29.95,ESE,107,0.0,0.0,88,0.00,SCT,,0.00,WeatherDisplay:10.37,2013-07-19 01:25:00,
2013-07-18 21:30:00,74.3,70.9,29.94,ESE,107,0.0,0.0,89,0.00,SCT,,0.00,WeatherDisplay:10.37,2013-07-19 01:30:00,
2013-07-18 21:35:00,74.3,71.2,29.95,ESE,107,0.0,0.0,90,0.00,SCT,,0.00,WeatherDisplay:10.37,2013-07-19 01:35:00,
2013-07-18 21:40:00,74.3,70.8,29.95,ESE,107,0.0,0.0,89,0.00,SCT,,0.00,WeatherDisplay:10.37,2013-07-19 01:40:00,
2013-07-18 21:45:00,74.2,70.8,29.97,North,350,0.0,4.0,89,0.00,SCT,,0.00,WeatherDisplay:10.37,2013-07-19 01:45:00,
2013-07-18 21:50:00,74.3,71.2,29.96,NW,319,0.0,1.0,90,0.00,SCT,,0.00,WeatherDisplay:10.37,2013-07-19 01:50:00,
2013-07-18 22:00:00,74.6,71.5,29.96,NNE,28,0.0,2.0,90,0.00,SCT,,0.00,WeatherDisplay:10.37,2013-07-19 02:00:00,
2013-07-18 22:05:00,74.7,71.6,29.96,NNE,30,0.0,2.0,90,0.00,BKN,,0.00,WeatherDisplay:10.37,2013-07-19 02:05:00,
2013-07-18 22:10:00,74.8,71.7,29.95,North,9,0.0,1.0,90,0.00,BKN,,0.00,WeatherDisplay:10.37,2013-07-19 02:10:00,
2013-07-18 22:15:00,74.8,71.7,29.95,NNE,17,0.0,2.0,90,0.00,BKN,,0.00,WeatherDisplay:10.37,2013-07-19 02:15:00,
2013-07-18 22:20:00,74.8,71.7,29.95,NE,38,0.0,0.0,90,0.00,BKN,,0.00,WeatherDisplay:10.37,2013-07-19 02:20:00,
2013-07-18 22:25:00,74.8,72.0,29.95,NE,38,0.0,0.0,91,0.00,BKN,,0.00,WeatherDisplay:10.37,2013-07-19 02:25:00,
2013-07-18 22:30:00,74.7,71.9,29.95,NE,38,0.0,0.0,91,0.00,BKN,,0.00,WeatherDisplay:10.37,2013-07-19 02:30:00,
2013-07-18 22:35:00,74.6,71.8,29.95,NE,38,0.0,0.0,91,0.00,OVC,,0.00,WeatherDisplay:10.37,2013-07-19 02:35:00,
2013-07-18 22:40:00,74.5,71.7,29.95,NE,38,0.0,0.0,91,0.00,OVC,,0.00,WeatherDisplay:10.37,2013-07-19 02:40:00,
2013-07-18 22:45:00,74.4,71.6,29.94,NE,38,0.0,0.0,91,0.00,OVC,,0.00,WeatherDisplay:10.37,2013-07-19 02:45:00,
2013-07-18 22:50:00,74.3,71.8,29.93,NE,38,0.0,0.0,92,0.00,OVC,,0.00,WeatherDisplay:10.37,2013-07-19 02:50:00,
2013-07-18 22:55:00,74.2,71.7,29.93,NE,38,0.0,0.0,92,0.00,OVC,,0.00,WeatherDisplay:10.37,2013-07-19 02:55:00,
2013-07-18 23:00:00,74.1,71.6,29.94,NE,38,0.0,0.0,92,0.00,OVC,,0.00,WeatherDisplay:10.37,2013-07-19 03:00:00,
2013-07-18 23:05:00,74.0,71.5,29.94,NE,38,0.0,0.0,92,0.00,BKN,,0.00,WeatherDisplay:10.37,2013-07-19 03:05:00,
2013-07-18 23:10:00,73.9,71.4,29.94,NE,38,0.0,0.0,92,0.00,BKN,,0.00,WeatherDisplay:10.37,2013-07-19 03:10:00,
2013-07-18 23:15:00,73.8,71.3,29.94,NE,38,0.0,0.0,92,0.00,BKN,,0.00,WeatherDisplay:10.37,2013-07-19 03:15:00,
2013-07-18 23:20:00,73.8,71.6,29.93,NE,38,0.0,0.0,93,0.00,BKN,,0.00,WeatherDisplay:10.37,2013-07-19 03:20:00,
2013-07-18 23:25:00,73.7,71.5,29.93,NE,38,0.0,0.0,93,0.00,BKN,,0.00,WeatherDisplay:10.37,2013-07-19 03:25:00,
2013-07-18 23:30:00,73.6,71.5,29.93,NE,38,0.0,0.0,93,0.00,BKN,,0.00,WeatherDisplay:10.37,2013-07-19 03:30:00,
2013-07-18 23:35:00,73.6,71.4,29.93,NE,38,0.0,0.0,93,0.00,BKN,,0.00,WeatherDisplay:10.37,2013-07-19 03:35:00,
2013-07-18 23:40:00,73.5,71.4,29.92,NE,38,0.0,0.0,93,0.00,BKN,,0.00,WeatherDisplay:10.37,2013-07-19 03:40:00,
2013-07-18 23:45:00,73.4,71.3,29.92,NE,38,0.0,0.0,93,0.00,BKN,,0.00,WeatherDisplay:10.37,2013-07-19 03:45:00,
2013-07-18 23:50:00,73.3,71.2,29.92,NE,38,0.0,0.0,93,0.00,BKN,,0.00,WeatherDisplay:10.37,2013-07-19 03:50:00,
2013-07-18 23:55:00,73.3,71.1,29.92,NE,38,0.0,0.0,93,0.00,BKN,,0.00,WeatherDisplay:10.37,2013-07-19 03:55:00,